Time;durP1;ratioP1;P1;durP2;ratioP2;P2;SDS_P1;SDS_P2;PMS_P1;PMS_P2;Temp;Humidity;BMP_temperature;BMP_pressure;BME280_temperature;BME280_humidity;BME280_pressure;Samples;Min_cycle;Max_cycle;Signal;HPM_P1;HPM_P2
2022/05/26 00:00:32;;;;;;;8.20;4.57;;;;;;;14.33;83.80;101635.84;5068958;28;20532;-69
2022/05/26 00:02:57;;;;;;;9.93;4.78;;;;;;;14.29;83.63;101613.97;5068957;28;20044;-69
2022/05/26 00:05:24;;;;;;;7.72;4.50;;;;;;;14.33;83.59;101622.41;5068705;28;20387;-69
2022/05/26 00:07:49;;;;;;;6.47;3.53;;;;;;;14.33;83.45;101623.28;5050487;28;20033;-69
2022/05/26 00:10:14;;;;;;;7.20;3.92;;;;;;;14.35;83.48;101623.03;5049670;28;20029;-69
2022/05/26 00:12:40;;;;;;;7.15;3.70;;;;;;;14.28;83.41;101612.31;5049627;28;20032;-69
2022/05/26 00:15:06;;;;;;;6.90;3.88;;;;;;;14.34;83.56;101624.91;5049618;28;20032;-69
2022/05/26 00:17:31;;;;;;;6.68;4.10;;;;;;;14.37;83.43;101631.72;5049687;28;20108;-69
2022/05/26 00:19:58;;;;;;;7.15;4.00;;;;;;;14.37;83.38;101631.72;5049617;28;20127;-69
2022/05/26 00:22:24;;;;;;;6.50;4.03;;;;;;;14.35;83.50;101634.59;5049570;28;20108;-69
2022/05/26 00:24:50;;;;;;;6.97;4.22;;;;;;;14.37;83.33;101632.56;5049404;28;20029;-69
2022/05/26 00:27:16;;;;;;;6.90;3.60;;;;;;;14.36;83.16;101638.13;5049533;28;20442;-69
2022/05/26 00:29:41;;;;;;;7.10;3.83;;;;;;;14.37;83.44;101637.09;5049362;28;20123;-69
2022/05/26 00:32:07;;;;;;;5.75;3.40;;;;;;;14.36;83.29;101638.97;5048946;28;20039;-69
2022/05/26 00:34:33;;;;;;;8.77;3.85;;;;;;;14.36;83.61;101638.97;5049439;28;20033;-69
2022/05/26 00:36:59;;;;;;;12.27;5.07;;;;;;;14.34;83.41;101632.13;5049420;28;20036;-69
2022/05/26 00:39:25;;;;;;;6.90;3.85;;;;;;;14.34;83.84;101632.97;5049490;28;20108;-69
2022/05/26 00:42:01;;;;;;;5.30;3.58;;;;;;;14.38;83.18;101638.75;5049440;28;20075;-69
2022/05/26 00:44:31;;;;;;;6.75;4.05;;;;;;;14.36;83.62;101641.66;5049075;28;20492;-69
2022/05/26 00:47:21;;;;;;;7.25;4.00;;;;;;;14.37;83.67;101637.09;5049418;28;20021;-69
2022/05/26 00:50:07;;;;;;;6.32;3.88;;;;;;;14.35;83.28;101631.09;5048819;28;20052;-69
2022/05/26 00:52:37;;;;;;;7.57;3.72;;;;;;;14.35;83.63;101631.09;5048966;28;20468;-69
2022/05/26 00:55:07;;;;;;;8.63;4.00;;;;;;;14.34;83.75;101641.00;5067883;28;20040;-69
2022/05/26 00:57:46;;;;;;;7.20;4.22;;;;;;;14.33;83.87;101641.19;5068272;28;20096;-69
2022/05/26 01:00:20;;;;;;;8.50;4.30;;;;;;;14.35;84.09;101637.28;5068359;28;20559;-69
2022/05/26 01:03:16;;;;;;;9.10;4.32;;;;;;;14.35;84.01;101641.84;5068359;28;20028;-69
2022/05/26 01:05:50;;;;;;;9.77;4.22;;;;;;;14.34;84.18;101638.31;5068419;28;20028;-70
2022/05/26 01:08:22;;;;;;;10.70;5.38;;;;;;;14.33;84.28;101642.06;5069939;28;20032;-70
2022/05/26 01:10:47;;;;;;;8.35;4.20;;;;;;;14.30;84.67;101631.69;5071555;28;20022;-69
2022/05/26 01:13:17;;;;;;;12.02;4.43;;;;;;;14.33;84.24;101639.38;5064930;28;20032;-69
2022/05/26 01:15:51;;;;;;;8.52;4.50;;;;;;;14.31;84.76;101633.38;5052821;28;20037;-70
2022/05/26 01:18:48;;;;;;;10.57;5.03;;;;;;;14.26;84.41;101630.47;5052918;28;20025;-70
2022/05/26 01:21:39;;;;;;;8.20;4.60;;;;;;;14.32;84.91;101640.38;5046607;28;20033;-69
2022/05/26 01:24:39;;;;;;;12.43;6.63;;;;;;;14.31;84.72;101643.28;5052294;28;20054;-69
2022/05/26 01:27:35;;;;;;;9.32;4.63;;;;;;;14.29;84.73;101643.47;5052255;28;20091;-69
2022/05/26 01:30:15;;;;;;;13.27;5.97;;;;;;;14.27;85.16;101642.84;5035791;28;20045;-69
2022/05/26 01:32:53;;;;;;;14.45;6.55;;;;;;;14.27;85.10;101645.53;5067253;28;20124;-69
2022/05/26 01:35:23;;;;;;;14.07;5.93;;;;;;;14.25;85.48;101639.53;5071359;28;20708;-69
2022/05/26 01:38:00;;;;;;;13.40;5.82;;;;;;;14.28;85.34;101655.25;5071448;28;20040;-69
2022/05/26 01:40:34;;;;;;;10.55;5.93;;;;;;;14.24;85.26;101643.25;5071467;28;20024;-69
2022/05/26 01:43:15;;;;;;;9.27;5.30;;;;;;;14.25;85.47;101653.78;5071495;28;20029;-70
2022/05/26 01:45:57;;;;;;;14.18;6.43;;;;;;;14.27;85.56;101652.75;5071173;28;20070;-69
2022/05/26 01:48:36;;;;;;;12.30;6.15;;;;;;;14.25;85.46;101653.78;5071258;28;20106;-69
2022/05/26 01:51:28;;;;;;;12.15;6.35;;;;;;;14.28;85.48;101663.28;5071165;28;20502;-69
2022/05/26 01:53:54;;;;;;;;;;;;;;;14.30;84.33;101661.22;5071309;28;20597;-69
2022/05/26 01:56:37;;;;;;;14.07;6.72;;;;;;;14.28;85.53;101663.28;5070930;28;19958;-69
2022/05/26 01:59:12;;;;;;;16.65;6.38;;;;;;;14.24;85.66;101667.41;5071062;28;20149;-69
2022/05/26 02:01:43;;;;;;;12.57;6.10;;;;;;;14.25;85.72;101667.22;5071101;28;20064;-69
2022/05/26 02:04:15;;;;;;;11.95;6.20;;;;;;;14.27;85.88;101675.03;5071016;28;20104;-69
2022/05/26 02:06:48;;;;;;;15.15;6.18;;;;;;;14.24;86.14;101676.28;5070903;28;20050;-69
2022/05/26 02:09:19;;;;;;;12.75;5.45;;;;;;;14.17;85.98;101662.03;5070903;28;20031;-69
2022/05/26 02:12:01;;;;;;;17.25;7.40;;;;;;;14.25;86.07;101675.25;5070823;28;20077;-69
2022/05/26 02:14:33;;;;;;;16.85;7.38;;;;;;;14.24;86.38;101681.63;5070494;28;20521;-69
2022/05/26 02:17:07;;;;;;;14.60;6.93;;;;;;;14.21;86.26;101673.16;5051166;28;20032;-69
2022/05/26 02:19:39;;;;;;;16.67;7.38;;;;;;;14.22;86.20;101677.50;5050362;28;20979;-69
2022/05/26 02:22:24;;;;;;;19.85;7.32;;;;;;;14.23;86.41;101674.63;5067738;28;20020;-69
2022/05/26 02:25:04;;;;;;;15.80;7.65;;;;;;;14.23;86.39;101680.00;5070772;28;20028;-69
2022/05/26 02:27:32;;;;;;;24.83;7.90;;;;;;;14.21;86.82;101683.91;5070550;28;20056;-69
2022/05/26 02:30:00;;;;;;;20.70;7.35;;;;;;;14.21;86.56;101682.03;5070488;28;20029;-69
2022/05/26 02:32:36;;;;;;;20.48;8.20;;;;;;;14.18;86.82;101685.13;5070346;28;20029;-69
2022/05/26 02:35:07;;;;;;;16.17;7.65;;;;;;;14.17;86.80;101691.53;5070375;28;20064;-69
2022/05/26 02:37:34;;;;;;;14.82;7.90;;;;;;;14.16;86.57;101689.84;5070319;28;20024;-69
2022/05/26 02:39:59;;;;;;;15.98;7.47;;;;;;;14.20;86.80;101695.66;5070109;28;20032;-69
2022/05/26 02:42:25;;;;;;;14.57;7.70;;;;;;;14.19;86.82;101692.13;5070187;28;20025;-69
2022/05/26 02:44:52;;;;;;;21.13;8.48;;;;;;;14.20;86.80;101699.19;5070235;28;20056;-69
2022/05/26 02:47:37;;;;;;;19.38;8.70;;;;;;;14.17;86.82;101696.91;5050726;28;20029;-69
2022/05/26 02:50:30;;;;;;;16.60;7.65;;;;;;;14.18;86.75;101701.22;5050918;28;20511;-69
2022/05/26 02:52:55;;;;;;;17.38;7.72;;;;;;;14.16;86.89;101700.59;5050915;28;20032;-69
2022/05/26 02:55:47;;;;;;;18.50;8.53;;;;;;;14.16;87.20;101697.91;5050784;28;20036;-69
2022/05/26 02:58:39;;;;;;;15.50;6.80;;;;;;;14.15;86.79;101698.13;5050885;28;21143;-69
2022/05/26 03:01:25;;;;;;;17.13;8.75;;;;;;;14.12;87.28;101703.88;5056870;28;20055;-69
2022/05/26 03:04:29;;;;;;;16.75;7.97;;;;;;;14.11;87.27;101710.28;5069802;28;20035;-69
2022/05/26 03:07:02;;;;;;;22.15;8.15;;;;;;;14.10;87.36;101708.63;4968588;28;20082;-69
2022/05/26 03:09:32;;;;;;;17.08;7.53;;;;;;;14.10;87.41;101703.25;5053323;28;20036;-69
2022/05/26 03:11:58;;;;;;;19.90;9.05;;;;;;;14.08;87.39;101706.13;5069567;28;20020;-69
2022/05/26 03:14:24;;;;;;;19.17;8.23;;;;;;;14.10;87.68;101703.25;5050379;28;20435;-69
2022/05/26 03:16:50;;;;;;;20.88;8.40;;;;;;;14.08;87.75;101708.81;5050450;28;20064;-69
2022/05/26 03:19:17;;;;;;;20.02;7.00;;;;;;;14.09;87.80;101709.63;5050785;28;20421;-69
2022/05/26 03:21:43;;;;;;;19.50;8.77;;;;;;;14.03;87.69;101703.22;5050268;28;20558;-69
2022/05/26 03:24:09;;;;;;;21.10;9.23;;;;;;;14.01;87.99;101705.25;5050225;28;20037;-70
2022/05/26 03:26:34;;;;;;;18.90;9.43;;;;;;;14.04;87.97;101712.91;5050433;28;20031;-70
2022/05/26 03:29:00;;;;;;;21.23;8.35;;;;;;;14.06;88.05;101721.59;5050359;28;20090;-69
2022/05/26 03:31:25;;;;;;;21.58;9.32;;;;;;;14.05;87.86;101719.94;5050073;28;20025;-69
2022/05/26 03:42:06;;;;;;;16.60;7.93;;;;;;;14.00;88.08;101727.75;5050229;28;20036;-69
2022/05/26 03:44:32;;;;;;;19.58;8.75;;;;;;;14.02;88.24;101739.94;5049351;28;20112;-69
2022/05/26 03:46:59;;;;;;;17.85;8.80;;;;;;;14.02;88.10;101736.44;5049508;28;20491;-69
2022/05/26 03:49:24;;;;;;;20.02;9.25;;;;;;;14.01;87.90;101732.91;5049718;28;20052;-69
2022/05/26 03:51:49;;;;;;;21.52;7.72;;;;;;;14.04;87.91;101737.03;5049821;28;20438;-69
2022/05/26 03:54:15;;;;;;;26.98;9.77;;;;;;;14.03;88.10;101740.75;5049855;28;20048;-69
2022/05/26 03:56:40;;;;;;;22.35;8.77;;;;;;;14.03;88.08;101746.13;5061263;28;20075;-69
2022/05/26 03:59:06;;;;;;;24.98;8.15;;;;;;;14.01;88.16;101749.00;5068877;28;20052;-69
2022/05/26 04:01:31;;;;;;;21.13;8.23;;;;;;;14.02;88.10;101741.81;5069205;28;20043;-69
2022/05/26 04:03:57;;;;;;;17.52;7.43;;;;;;;14.02;88.17;101756.03;5068709;28;20032;-69
2022/05/26 04:06:23;;;;;;;19.05;8.45;;;;;;;13.99;88.23;101745.72;5050637;28;20036;-69
2022/05/26 04:08:49;;;;;;;17.25;8.60;;;;;;;13.99;88.48;101750.22;5068677;28;20036;-69
2022/05/26 04:11:14;;;;;;;18.88;7.95;;;;;;;13.98;88.28;101749.41;5068773;28;20020;-69
2022/05/26 04:13:40;;;;;;;19.75;7.13;;;;;;;13.96;88.22;101758.66;5068463;28;20131;-69
2022/05/26 04:16:06;;;;;;;16.48;7.53;;;;;;;13.94;88.46;101756.19;5068688;28;20032;-69
2022/05/26 04:18:32;;;;;;;19.23;7.53;;;;;;;13.94;88.35;101758.06;5068610;28;20111;-69
2022/05/26 04:21:09;;;;;;;21.80;9.10;;;;;;;13.94;88.66;101758.88;5068628;28;20043;-69
2022/05/26 04:23:35;;;;;;;18.70;8.40;;;;;;;13.95;88.57;101767.75;5068809;28;20464;-69
2022/05/26 04:26:02;;;;;;;21.83;9.23;;;;;;;13.93;88.53;101761.75;5068491;28;20051;-69
2022/05/26 04:28:27;;;;;;;16.88;7.40;;;;;;;13.95;88.56;101773.94;5060120;28;20399;-69
2022/05/26 04:30:53;;;;;;;24.55;7.80;;;;;;;13.98;88.11;101770.03;5049461;28;20025;-69
2022/05/26 04:33:18;;;;;;;18.20;6.20;;;;;;;13.98;88.10;101768.16;5057818;28;20600;-70
2022/05/26 04:35:44;;;;;;;20.90;7.28;;;;;;;13.99;88.18;101777.03;5068509;28;20021;-69
2022/05/26 04:38:09;;;;;;;22.60;7.80;;;;;;;13.97;88.17;101773.75;5068344;28;20040;-69
2022/05/26 04:40:35;;;;;;;17.27;6.75;;;;;;;13.98;88.15;101773.53;5068457;28;20439;-69
2022/05/26 04:43:00;;;;;;;20.75;6.00;;;;;;;13.99;87.93;101775.22;5070064;28;20028;-69
2022/05/26 04:45:26;;;;;;;17.13;6.32;;;;;;;14.00;87.88;101778.72;5071922;28;20387;-69
2022/05/26 04:47:52;;;;;;;20.48;6.72;;;;;;;13.99;88.29;101775.22;5072232;28;20032;-70
2022/05/26 04:50:18;;;;;;;18.52;6.93;;;;;;;14.00;87.91;101784.91;5072207;28;20052;-69
2022/05/26 04:52:43;;;;;;;22.30;7.05;;;;;;;14.02;88.02;101787.41;5072214;28;20043;-69
2022/05/26 04:55:10;;;;;;;17.08;6.65;;;;;;;14.00;87.70;101776.03;5072142;28;20060;-69
2022/05/26 04:57:35;;;;;;;12.07;6.45;;;;;;;14.07;87.57;101794.84;5072117;28;20070;-69
2022/05/26 05:00:01;;;;;;;18.48;5.53;;;;;;;14.07;87.86;101798.38;5071910;28;20032;-69
2022/05/26 05:02:26;;;;;;;16.17;5.30;;;;;;;14.11;87.67;101807.66;5071966;28;20480;-69
2022/05/26 05:04:53;;;;;;;19.92;5.50;;;;;;;14.17;87.39;101806.03;5072104;28;20037;-69
2022/05/26 05:07:19;;;;;;;19.13;5.78;;;;;;;14.22;87.39;101811.66;5072157;28;20038;-69
2022/05/26 05:09:46;;;;;;;25.10;6.93;;;;;;;14.27;87.19;101819.94;5069975;28;20032;-69
2022/05/26 05:12:14;;;;;;;16.52;5.57;;;;;;;14.28;86.78;101820.75;5052737;28;20025;-69
2022/05/26 05:14:43;;;;;;;14.18;7.28;;;;;;;14.28;87.03;101828.81;5052661;28;20080;-69
2022/05/26 05:17:08;;;;;;;18.42;5.38;;;;;;;14.28;86.92;101826.97;5052818;28;20028;-70
2022/05/26 05:19:34;;;;;;;21.98;6.15;;;;;;;14.29;86.79;101823.25;5052726;28;20033;-69
2022/05/26 05:22:04;;;;;;;20.92;7.68;;;;;;;14.29;86.72;101825.94;5071841;28;20451;-70
2022/05/26 05:24:46;;;;;;;17.70;5.80;;;;;;;14.31;86.85;101837.31;5071718;28;20020;-69
2022/05/26 05:27:24;;;;;;;21.20;5.60;;;;;;;14.31;86.70;101831.13;5071631;28;20040;-69
2022/05/26 05:29:52;;;;;;;22.50;5.97;;;;;;;14.32;86.81;101838.13;5071536;28;20111;-69
2022/05/26 05:32:23;;;;;;;16.48;5.18;;;;;;;14.29;87.11;101842.03;5071382;28;20032;-69
2022/05/26 05:35:11;;;;;;;21.15;5.88;;;;;;;14.35;86.67;101838.56;5071271;28;20043;-69
2022/05/26 05:37:37;;;;;;;20.02;7.70;;;;;;;14.35;86.75;101838.56;5071240;28;20032;-69
2022/05/26 05:40:03;;;;;;;14.50;5.70;;;;;;;14.38;87.00;101848.94;5071252;28;20525;-69
2022/05/26 05:42:29;;;;;;;16.98;6.47;;;;;;;14.43;86.84;101848.31;5071150;28;20032;-69
2022/05/26 05:44:54;;;;;;;17.58;6.07;;;;;;;14.45;86.63;101851.63;5071372;28;20154;-69
2022/05/26 05:47:20;;;;;;;20.55;7.20;;;;;;;14.49;86.36;101847.53;5070831;28;20484;-69
2022/05/26 05:49:45;;;;;;;20.52;6.93;;;;;;;14.52;86.51;101849.00;5071025;28;20060;-69
2022/05/26 05:52:18;;;;;;;20.90;7.32;;;;;;;14.58;86.29;101843.69;5070871;28;20029;-69
2022/05/26 05:54:44;;;;;;;17.40;5.80;;;;;;;14.64;85.89;101850.94;5069712;28;20029;-69
2022/05/26 05:57:09;;;;;;;14.80;5.40;;;;;;;14.70;85.84;101857.38;5070791;28;20643;-69
2022/05/26 05:59:35;;;;;;;23.17;6.07;;;;;;;14.73;85.27;101857.00;5070996;28;20036;-69
2022/05/26 06:02:01;;;;;;;16.75;7.70;;;;;;;14.78;85.60;101865.28;5068766;28;20036;-69
2022/05/26 06:04:26;;;;;;;16.17;5.30;;;;;;;14.84;85.24;101863.66;5051792;28;20040;-70
2022/05/26 06:06:52;;;;;;;15.82;6.88;;;;;;;14.89;84.81;101864.69;5051731;28;20473;-69
2022/05/26 06:09:18;;;;;;;20.17;6.32;;;;;;;14.88;84.87;101870.25;5051722;28;20384;-69
2022/05/26 06:11:44;;;;;;;16.00;6.30;;;;;;;14.90;84.42;101868.19;5051651;28;20112;-69
2022/05/26 06:14:10;;;;;;;21.92;7.50;;;;;;;14.87;84.74;101865.94;5051331;28;20048;-69
2022/05/26 06:16:36;;;;;;;17.42;6.50;;;;;;;14.92;84.80;101876.91;5051595;28;20040;-69
2022/05/26 06:19:03;;;;;;;15.65;5.15;;;;;;;14.96;84.08;101880.00;5051636;28;20039;-69
2022/05/26 06:21:28;;;;;;;21.58;6.13;;;;;;;15.02;84.33;101876.53;5051568;28;20029;-70
2022/05/26 06:23:56;;;;;;;18.92;6.80;;;;;;;15.11;83.87;101880.69;5051587;28;20040;-69
2022/05/26 06:26:24;;;;;;;18.92;7.05;;;;;;;15.16;83.66;101882.78;5051608;28;20032;-69
2022/05/26 06:31:34;;;;;;;19.05;5.75;;;;;;;15.13;83.18;101894.75;5051521;28;20056;-69
2022/05/26 06:39:27;;;;;;;16.45;6.20;;;;;;;14.99;84.09;101899.25;5051266;28;20404;-69
2022/05/26 06:42:05;;;;;;;17.50;6.97;;;;;;;15.08;83.47;101900.72;5050940;28;20028;-70
2022/05/26 06:44:30;;;;;;;19.00;7.60;;;;;;;15.13;82.84;101894.75;5051110;28;20029;-70
2022/05/26 06:46:56;;;;;;;15.90;5.93;;;;;;;15.27;82.93;101904.53;5050878;28;20056;-69
2022/05/26 06:49:21;;;;;;;16.23;6.72;;;;;;;15.34;82.07;101913.44;5050504;28;20130;-69
2022/05/26 06:51:46;;;;;;;13.88;6.25;;;;;;;15.30;81.19;101914.03;5050928;28;20029;-69
2022/05/26 06:54:12;;;;;;;15.88;7.35;;;;;;;15.31;81.41;101918.38;5050637;28;20480;-69
2022/05/26 06:56:38;;;;;;;20.25;8.30;;;;;;;15.31;82.05;101911.16;5069766;28;20427;-69
2022/05/26 06:59:03;;;;;;;14.50;7.78;;;;;;;15.45;82.18;101921.94;5069783;28;20439;-69
2022/05/26 07:01:29;;;;;;;18.58;8.93;;;;;;;15.63;80.59;101929.44;5069750;28;20059;-68
2022/05/26 07:03:54;;;;;;;16.05;6.95;;;;;;;15.64;79.97;101921.19;5069681;28;20472;-68
2022/05/26 07:06:23;;;;;;;18.33;7.38;;;;;;;15.70;80.40;101922.25;5069351;28;20043;-71
2022/05/26 07:08:49;;;;;;;15.25;7.40;;;;;;;15.78;79.51;101908.59;5050857;28;20025;-70
2022/05/26 07:11:16;;;;;;;18.67;7.90;;;;;;;15.90;78.46;101925.78;5050394;28;20037;-70
2022/05/26 07:13:42;;;;;;;17.05;7.10;;;;;;;15.86;77.48;101924.53;5050107;28;20044;-70
2022/05/26 07:16:10;;;;;;;15.13;6.53;;;;;;;15.82;77.70;101933.22;5050502;28;20028;-69
2022/05/26 07:18:36;;;;;;;15.15;6.75;;;;;;;15.87;77.23;101944.19;5068195;28;20029;-69
2022/05/26 07:21:06;;;;;;;21.50;6.90;;;;;;;15.91;77.12;101937.38;5052080;28;20040;-71
2022/05/26 07:23:34;;;;;;;14.48;8.15;;;;;;;15.96;77.10;101949.19;5050154;28;20025;-71
2022/05/26 07:26:10;;;;;;;16.25;9.32;;;;;;;16.02;76.92;101942.16;5052534;28;20425;-74
2022/05/26 07:28:37;;;;;;;17.13;7.85;;;;;;;16.07;75.80;101934.28;5050221;28;20024;-73
2022/05/26 07:31:02;;;;;;;13.55;6.00;;;;;;;16.14;75.93;101947.75;5065535;28;20436;-74
2022/05/26 07:33:28;;;;;;;15.85;7.22;;;;;;;16.15;75.54;101947.53;5054369;28;20063;-73
2022/05/26 07:35:53;;;;;;;11.48;6.60;;;;;;;16.25;74.67;101954.38;5049955;28;20590;-73
2022/05/26 07:41:18;;;;;;;15.10;7.15;;;;;;;16.25;73.35;101960.59;5055966;28;20127;-73
2022/05/26 07:43:52;;;;;;;15.20;6.40;;;;;;;16.23;73.53;101956.44;5061867;28;20032;-72
2022/05/26 07:46:17;;;;;;;15.00;6.95;;;;;;;16.24;73.58;101960.78;5068796;28;20507;-73
2022/05/26 07:48:43;;;;;;;14.48;6.68;;;;;;;16.31;73.32;101961.63;5050940;28;20036;-73
2022/05/26 07:51:08;;;;;;;15.07;6.60;;;;;;;16.41;72.89;101972.81;5047577;28;20524;-73
2022/05/26 07:53:33;;;;;;;15.05;6.70;;;;;;;16.58;72.28;101968.66;5048846;28;20395;-74
2022/05/26 07:56:01;;;;;;;17.75;7.20;;;;;;;16.72;72.85;101963.25;5047891;28;20044;-73
2022/05/26 07:58:28;;;;;;;18.52;8.15;;;;;;;16.64;72.57;101961.59;5048847;28;20839;-71
2022/05/26 08:00:54;;;;;;;12.57;6.93;;;;;;;16.63;72.32;101968.00;5048815;28;20025;-71
2022/05/26 08:03:20;;;;;;;12.32;6.47;;;;;;;16.77;72.02;101971.53;5048880;28;20033;-71
2022/05/26 08:05:46;;;;;;;19.17;7.45;;;;;;;16.67;71.86;101971.94;5048709;28;20025;-71
2022/05/26 08:08:12;;;;;;;19.08;8.45;;;;;;;17.07;70.59;101972.69;5048711;28;20033;-71
2022/05/26 08:10:39;;;;;;;16.55;6.63;;;;;;;18.67;66.74;101979.78;5048689;28;20043;-71
2022/05/26 08:13:05;;;;;;;16.90;7.18;;;;;;;20.66;57.79;101972.75;5048362;28;20567;-71
2022/05/26 08:15:31;;;;;;;10.75;5.88;;;;;;;21.26;56.33;101985.97;5028737;28;20048;-72
2022/05/26 08:17:57;;;;;;;17.63;6.68;;;;;;;22.18;53.76;101979.53;5028272;28;20060;-72
2022/05/26 08:20:22;;;;;;;11.18;6.65;;;;;;;22.93;50.37;101969.25;5028940;28;20476;-72
2022/05/26 08:22:48;;;;;;;13.48;6.47;;;;;;;21.96;52.21;101982.16;5029033;28;20136;-72
2022/05/26 08:25:13;;;;;;;14.45;6.22;;;;;;;20.63;55.53;101984.88;5029060;28;20034;-71
2022/05/26 08:27:39;;;;;;;9.63;5.78;;;;;;;20.81;55.61;101985.84;5032756;28;20487;-72
2022/05/26 08:30:05;;;;;;;11.70;5.68;;;;;;;20.38;57.92;101984.25;5047997;28;20408;-72
2022/05/26 08:32:30;;;;;;;11.55;5.90;;;;;;;21.50;55.36;101975.88;5048253;28;20036;-72
2022/05/26 08:35:01;;;;;;;16.45;6.60;;;;;;;23.45;51.16;101978.84;5048273;28;20533;-72
2022/05/26 08:37:27;;;;;;;12.55;6.80;;;;;;;24.96;45.88;101979.56;5033193;28;20056;-71
2022/05/26 08:39:52;;;;;;;16.45;7.35;;;;;;;25.08;44.69;101980.16;5029457;28;20065;-72
2022/05/26 08:42:23;;;;;;;13.50;7.45;;;;;;;24.68;46.05;101970.69;5029179;28;20489;-72
2022/05/26 08:44:49;;;;;;;9.60;6.05;;;;;;;24.63;46.02;101995.22;5028978;28;20037;-72
2022/05/26 08:47:18;;;;;;;10.07;5.57;;;;;;;24.36;46.17;101983.53;5029367;28;20045;-72
2022/05/26 08:50:05;;;;;;;10.32;5.28;;;;;;;25.03;45.77;101990.25;5037208;28;20045;-72
2022/05/26 08:52:34;;;;;;;9.55;5.25;;;;;;;24.97;44.96;101997.59;5048897;28;20094;-72
2022/05/26 08:55:04;;;;;;;15.13;6.03;;;;;;;26.05;45.01;101998.75;5048882;28;20032;-72
2022/05/26 08:57:39;;;;;;;14.10;5.63;;;;;;;26.10;42.77;101995.19;5048871;28;20140;-73
2022/05/26 09:00:06;;;;;;;9.27;5.82;;;;;;;24.68;43.69;101995.25;5048913;28;20067;-73
2022/05/26 09:02:34;;;;;;;8.80;4.65;;;;;;;22.71;46.89;102004.56;5048778;28;20033;-72
2022/05/26 09:05:11;;;;;;;10.05;5.25;;;;;;;21.32;50.55;102014.03;5048619;28;20025;-72
2022/05/26 09:13:20;;;;;;;9.48;4.13;;;;;;;19.96;55.57;101997.84;5049151;28;20110;-72
2022/05/26 09:15:46;;;;;;;8.55;4.55;;;;;;;19.84;55.41;102003.22;5030950;28;20025;-72
2022/05/26 09:18:17;;;;;;;12.40;5.28;;;;;;;19.56;56.70;101996.47;5048905;28;20152;-72
2022/05/26 09:20:45;;;;;;;7.78;4.65;;;;;;;19.37;57.56;102008.41;5048890;28;20044;-72
2022/05/26 09:23:13;;;;;;;7.07;4.28;;;;;;;19.33;56.85;102008.00;5048847;28;20409;-72
2022/05/26 09:25:52;;;;;;;4.93;4.00;;;;;;;19.20;56.12;102002.75;5048576;28;20472;-72
2022/05/26 09:28:38;;;;;;;10.65;5.18;;;;;;;18.97;56.86;102004.28;5049353;28;20032;-72
2022/05/26 09:31:31;;;;;;;14.25;5.70;;;;;;;18.97;57.33;102014.28;5052054;28;20040;-72
2022/05/26 09:33:59;;;;;;;11.65;4.43;;;;;;;18.95;58.19;102016.38;5052213;28;20120;-72
2022/05/26 09:36:28;;;;;;;8.20;5.55;;;;;;;18.81;57.72;102021.91;5051888;28;20035;-71
2022/05/26 09:38:54;;;;;;;12.05;5.97;;;;;;;18.85;59.16;102013.34;5052316;28;20032;-71
2022/05/26 09:41:20;;;;;;;10.43;5.43;;;;;;;18.85;60.10;102027.69;5051854;28;20669;-72
2022/05/26 09:43:50;;;;;;;14.90;5.85;;;;;;;18.87;60.02;102028.28;5052249;28;20028;-72
2022/05/26 09:46:16;;;;;;;9.65;4.65;;;;;;;18.83;58.01;102027.91;5052307;28;20079;-71
2022/05/26 09:48:45;;;;;;;10.50;4.70;;;;;;;18.76;58.35;102035.25;5052206;28;20033;-72
2022/05/26 09:51:24;;;;;;;8.20;4.68;;;;;;;19.06;56.65;102034.53;5070239;28;20037;-72
2022/05/26 09:53:54;;;;;;;11.18;3.88;;;;;;;19.30;57.43;102029.28;5071246;28;20028;-72
2022/05/26 09:56:32;;;;;;;10.88;5.07;;;;;;;19.19;56.04;102028.16;5052386;28;20028;-72
2022/05/26 09:58:58;;;;;;;8.98;3.97;;;;;;;19.02;57.17;102038.72;5068833;28;20040;-72
2022/05/26 10:01:26;;;;;;;15.63;6.43;;;;;;;18.87;58.72;102039.09;5070908;28;20066;-72
2022/05/26 10:04:22;;;;;;;11.75;6.55;;;;;;;18.74;59.99;102039.19;5071037;28;20337;-72
2022/05/26 10:07:14;;;;;;;12.35;7.18;;;;;;;18.72;59.21;102050.22;5071157;28;20035;-72
2022/05/26 10:09:40;;;;;;;;;;;;;;;18.93;58.12;102042.78;5052076;28;20036;-72
2022/05/26 10:12:06;;;;;;;6.90;3.85;;;;;;;18.92;56.81;102041.16;5051667;28;19915;-71
2022/05/26 10:14:50;;;;;;;8.68;4.75;;;;;;;18.72;57.94;102038.59;5051540;28;20111;-72
2022/05/26 10:17:58;;;;;;;17.08;8.80;;;;;;;18.60;60.08;102046.56;5051655;28;20029;-72
2022/05/26 10:20:44;;;;;;;15.60;9.02;;;;;;;18.74;60.57;102047.31;5051219;28;20575;-72
2022/05/26 10:23:39;;;;;;;9.32;4.85;;;;;;;18.97;57.35;102031.31;5033503;28;20419;-72
2022/05/26 10:26:25;;;;;;;14.25;5.65;;;;;;;19.35;57.03;102049.19;5051355;28;20029;-72
2022/05/26 10:29:25;;;;;;;9.15;5.72;;;;;;;19.36;56.21;102047.31;5051539;28;20028;-72
2022/05/26 10:32:25;;;;;;;13.38;6.97;;;;;;;19.01;57.07;102046.03;5051220;28;20215;-72
2022/05/26 10:35:03;;;;;;;10.32;5.60;;;;;;;19.09;57.62;102047.59;5051185;28;20407;-71
2022/05/26 10:37:38;;;;;;;10.35;5.63;;;;;;;19.21;56.64;102036.88;5050912;28;20037;-72
2022/05/26 10:40:12;;;;;;;12.55;6.50;;;;;;;19.19;59.54;102050.63;5050505;28;20492;-72
2022/05/26 10:42:43;;;;;;;13.63;6.22;;;;;;;19.55;56.95;102048.16;5050535;28;20159;-72
2022/05/26 10:45:14;;;;;;;12.27;6.53;;;;;;;19.85;56.43;102053.59;5050508;28;20052;-72
2022/05/26 10:47:42;;;;;;;6.20;4.10;;;;;;;19.73;54.62;102041.88;5051186;28;20553;-72
2022/05/26 10:50:18;;;;;;;6.68;3.92;;;;;;;19.61;55.32;102053.47;5050856;28;20045;-72
2022/05/26 10:52:49;;;;;;;9.93;5.78;;;;;;;19.74;55.15;102051.69;5050869;28;20029;-72
2022/05/26 10:55:26;;;;;;;10.55;5.55;;;;;;;19.69;56.31;102047.75;5050904;28;20510;-72
2022/05/26 10:58:05;;;;;;;11.05;6.53;;;;;;;19.76;55.66;102041.47;5050887;28;20055;-71
2022/05/26 11:00:31;;;;;;;11.02;5.60;;;;;;;19.96;54.12;102047.41;5050740;28;20021;-71
2022/05/26 11:03:00;;;;;;;13.43;5.82;;;;;;;20.30;54.37;102039.59;5050727;28;20025;-72
2022/05/26 11:05:31;;;;;;;9.70;4.95;;;;;;;20.56;52.51;102057.34;5050854;28;20039;-72
2022/05/26 11:08:10;;;;;;;12.43;8.10;;;;;;;20.34;52.70;102049.75;5050531;28;20118;-71
2022/05/26 11:10:44;;;;;;;16.17;7.90;;;;;;;20.28;53.09;102053.41;5050355;28;20064;-72
2022/05/26 11:13:53;;;;;;;9.77;6.32;;;;;;;20.41;53.25;102046.97;5049823;28;20036;-72
2022/05/26 11:19:29;;;;;;;7.90;5.05;;;;;;;20.17;50.95;102056.06;5050461;28;20380;-72
2022/05/26 11:21:55;;;;;;;12.07;6.20;;;;;;;19.79;52.80;102049.94;5050371;28;20020;-72
2022/05/26 11:24:23;;;;;;;12.77;7.38;;;;;;;19.46;53.39;102053.84;5050195;28;20058;-72
2022/05/26 11:27:09;;;;;;;12.43;8.77;;;;;;;19.27;54.21;102041.38;5050211;28;20060;-73
2022/05/26 11:29:39;;;;;;;10.80;7.85;;;;;;;19.26;54.77;102050.56;5050231;28;20021;-72
2022/05/26 11:38:14;;;;;;;11.63;6.90;;;;;;;19.30;56.64;102046.34;5030310;28;20376;-73
2022/05/26 11:40:45;;;;;;;17.25;7.32;;;;;;;19.20;54.81;102032.50;5042330;28;20040;-73
2022/05/26 11:43:11;;;;;;;12.37;7.83;;;;;;;19.02;54.82;102025.22;5069142;28;20024;-73
2022/05/26 11:45:50;;;;;;;13.82;7.88;;;;;;;19.07;55.99;102041.59;5066808;28;20021;-75
2022/05/26 11:48:43;;;;;;;13.23;8.70;;;;;;;19.13;55.82;102032.59;5056518;28;20021;-74
2022/05/26 11:51:27;;;;;;;14.10;8.35;;;;;;;19.22;56.29;102027.72;5056402;28;20135;-74
2022/05/26 11:53:54;;;;;;;21.63;9.00;;;;;;;19.58;56.74;102024.16;5056229;28;20041;-72
2022/05/26 11:56:25;;;;;;;16.90;8.07;;;;;;;20.02;55.82;102037.56;5056601;28;20032;-73
2022/05/26 11:59:09;;;;;;;;;;;;;;;20.28;55.03;102037.16;5057920;28;20473;-74
2022/05/26 12:01:36;;;;;;;13.43;7.97;;;;;;;20.26;53.57;102030.31;5056764;28;19931;-73
2022/05/26 12:04:15;;;;;;;10.48;7.63;;;;;;;20.14;54.19;102017.53;5056616;28;20387;-71
2022/05/26 12:06:52;;;;;;;14.38;8.45;;;;;;;20.02;54.45;102015.88;5056877;28;20030;-73
2022/05/26 12:09:41;;;;;;;16.52;8.82;;;;;;;19.90;55.18;102026.66;5056539;28;20442;-73
2022/05/26 12:12:27;;;;;;;14.65;7.95;;;;;;;19.83;54.09;102026.78;5056329;28;20012;-72